createdAt,value
2023-02-11T00:00:54.189Z,-3.77
2023-02-11T00:03:20.957Z,-3.77
2023-02-11T00:05:57.270Z,-3.73
2023-02-11T00:08:23.703Z,-3.79
2023-02-11T00:10:58.161Z,-3.80
2023-02-11T00:13:25.540Z,-3.80
2023-02-11T00:15:52.547Z,-3.79
2023-02-11T00:18:19.272Z,-3.85
2023-02-11T00:20:45.780Z,-3.93
2023-02-11T00:23:12.898Z,-3.96
2023-02-11T00:25:44.428Z,-3.97
2023-02-11T00:28:12.223Z,-3.97
2023-02-11T00:30:40.840Z,-3.97
2023-02-11T00:33:07.964Z,-3.99
2023-02-11T00:35:37.093Z,-4.02
2023-02-11T00:38:03.778Z,-4.02
2023-02-11T00:40:31.116Z,-4.06
2023-02-11T00:42:57.554Z,-4.06
2023-02-11T00:45:24.331Z,-3.83
2023-02-11T00:47:50.745Z,-3.84
2023-02-11T00:50:17.217Z,-4.01
2023-02-11T00:52:43.735Z,-4.01
2023-02-11T00:55:10.213Z,-4.10
2023-02-11T00:57:36.695Z,-3.93
2023-02-11T01:00:05.430Z,-4.00
2023-02-11T01:02:32.049Z,-4.14
2023-02-11T01:04:59.987Z,-4.20
2023-02-11T01:07:27.744Z,-4.15
2023-02-11T01:09:54.740Z,-4.35
2023-02-11T01:12:21.510Z,-4.31
2023-02-11T01:14:48.532Z,-4.03
2023-02-11T01:17:15.381Z,-3.98
2023-02-11T01:19:42.544Z,-3.97
2023-02-11T01:22:09.074Z,-4.03
2023-02-11T01:24:35.605Z,-4.14
2023-02-11T01:27:02.104Z,-4.11
2023-02-11T01:29:28.533Z,-4.15
2023-02-11T01:31:55.103Z,-4.19
2023-02-11T01:34:21.637Z,-4.21
2023-02-11T01:36:49.773Z,-4.20
2023-02-11T01:39:16.171Z,-4.19
2023-02-11T01:41:42.771Z,-4.28
2023-02-11T01:44:32.184Z,-4.29
2023-02-11T01:46:59.125Z,-4.28
2023-02-11T01:49:36.201Z,-4.36
2023-02-11T01:52:09.642Z,-4.33
2023-02-11T01:55:05.274Z,-4.38
2023-02-11T01:57:34.790Z,-4.35
2023-02-11T02:00:07.200Z,-4.38
2023-02-11T02:03:02.720Z,-4.43
2023-02-11T02:05:43.299Z,-4.42
2023-02-11T02:08:34.954Z,-4.34
2023-02-11T02:11:01.816Z,-4.19
2023-02-11T02:13:31.545Z,-4.13
2023-02-11T02:16:04.454Z,-3.91
2023-02-11T02:19:10.541Z,-3.88
2023-02-11T02:22:01.698Z,-3.88
2023-02-11T02:24:56.653Z,-3.86
2023-02-11T02:27:47.990Z,-3.80
2023-02-11T02:30:48.727Z,-3.63
2023-02-11T02:33:23.482Z,-3.53
2023-02-11T02:36:05.175Z,-3.59
2023-02-11T02:38:37.595Z,-3.59
2023-02-11T02:41:10.875Z,-3.66
2023-02-11T02:43:49.456Z,-3.77
2023-02-11T02:46:17.934Z,-3.87
2023-02-11T02:48:45.436Z,-4.01
2023-02-11T02:51:39.070Z,-4.14
2023-02-11T02:54:20.479Z,-4.42
2023-02-11T02:57:02.946Z,-4.59
2023-02-11T02:59:50.718Z,-4.60
2023-02-11T03:02:33.605Z,-4.40
2023-02-11T03:05:21.778Z,-4.35
2023-02-11T03:08:09.174Z,-4.16
2023-02-11T03:10:41.501Z,-4.22
2023-02-11T03:13:08.684Z,-4.15
2023-02-11T03:15:41.283Z,-4.10
2023-02-11T03:18:11.402Z,-4.14
2023-02-11T03:20:41.731Z,-4.10
2023-02-11T03:23:14.754Z,-3.99
2023-02-11T03:25:50.768Z,-3.89
2023-02-11T03:28:46.328Z,-3.85
2023-02-11T03:31:12.852Z,-3.67
2023-02-11T03:33:54.507Z,-3.41
2023-02-11T03:36:41.020Z,-3.33
2023-02-11T03:39:10.546Z,-3.50
2023-02-11T03:41:38.011Z,-3.59
2023-02-11T03:44:06.054Z,-3.75
2023-02-11T03:46:38.806Z,-3.86
2023-02-11T03:49:11.052Z,-3.94
2023-02-11T03:51:39.070Z,-3.98
2023-02-11T03:54:11.955Z,-4.04
2023-02-11T03:56:50.724Z,-4.00
2023-02-11T03:59:17.255Z,-3.95
2023-02-11T04:01:43.903Z,-3.87
2023-02-11T04:04:10.711Z,-3.72
2023-02-11T04:06:37.346Z,-3.57
2023-02-11T04:09:03.933Z,-3.51
2023-02-11T04:11:30.468Z,-3.45
2023-02-11T04:13:57.099Z,-3.46
2023-02-11T04:16:23.851Z,-3.50
2023-02-11T04:18:50.394Z,-3.43
2023-02-11T04:21:16.857Z,-3.43
2023-02-11T04:23:43.326Z,-3.35
2023-02-11T04:26:09.767Z,-3.32
2023-02-11T04:28:36.362Z,-3.29
2023-02-11T04:31:02.966Z,-3.20
2023-02-11T04:33:29.505Z,-3.00
2023-02-11T04:35:55.942Z,-3.05
2023-02-11T04:38:24.096Z,-3.06
2023-02-11T04:40:50.952Z,-2.97
2023-02-11T04:43:17.510Z,-2.90
2023-02-11T04:45:43.950Z,-2.83
2023-02-11T04:48:10.564Z,-2.74
2023-02-11T04:50:36.995Z,-2.61
2023-02-11T04:53:03.491Z,-2.53
2023-02-11T04:55:29.935Z,-2.43
2023-02-11T04:57:56.458Z,-2.40
2023-02-11T05:00:22.985Z,-2.26
2023-02-11T05:02:49.490Z,-2.26
2023-02-11T05:05:15.987Z,-2.31
2023-02-11T05:07:42.425Z,-2.33
2023-02-11T05:10:09.102Z,-2.36
2023-02-11T05:12:35.557Z,-2.38
2023-02-11T05:15:01.978Z,-2.30
2023-02-11T05:17:28.500Z,-2.11
2023-02-11T05:19:54.959Z,-2.06
2023-02-11T05:22:22.182Z,-1.92
2023-02-11T05:24:49.068Z,-1.92
2023-02-11T05:27:15.531Z,-1.86
2023-02-11T05:29:42.142Z,-1.81
2023-02-11T05:32:08.990Z,-1.80
2023-02-11T05:34:36.128Z,-1.80
2023-02-11T05:37:02.586Z,-1.83
2023-02-11T05:39:29.045Z,-1.85
2023-02-11T05:41:55.560Z,-1.83
2023-02-11T05:44:22.140Z,-1.63
2023-02-11T05:46:49.358Z,-1.48
2023-02-11T05:49:17.417Z,-1.45
2023-02-11T05:51:44.021Z,-1.37
2023-02-11T05:54:10.722Z,-1.25
2023-02-11T05:56:37.207Z,-1.33
2023-02-11T05:59:03.800Z,-1.49
2023-02-11T06:01:30.417Z,-1.42
2023-02-11T06:03:57.048Z,-1.33
2023-02-11T06:06:23.764Z,-1.25
2023-02-11T06:08:50.190Z,-1.19
2023-02-11T06:11:17.603Z,-1.11
2023-02-11T06:13:44.281Z,-0.94
2023-02-11T06:16:10.781Z,-0.89
2023-02-11T06:18:37.413Z,-0.95
2023-02-11T06:21:07.801Z,-1.07
2023-02-11T06:23:34.250Z,-1.12
2023-02-11T06:26:06.502Z,-1.14
2023-02-11T06:28:33.750Z,-1.14
2023-02-11T06:31:06.587Z,-1.35
2023-02-11T06:33:34.149Z,-1.41
2023-02-11T06:36:00.921Z,-1.53
2023-02-11T06:38:27.552Z,-1.54
2023-02-11T06:40:54.167Z,-1.56
2023-02-11T06:43:20.738Z,-1.48
2023-02-11T06:45:53.344Z,-1.37
2023-02-11T06:48:20.770Z,-1.41
2023-02-11T06:50:47.586Z,-1.42
2023-02-11T06:53:14.133Z,-1.43
2023-02-11T06:55:40.651Z,-1.38
2023-02-11T06:58:07.085Z,-1.28
2023-02-11T07:00:33.544Z,-1.32
2023-02-11T07:02:59.993Z,-1.21
2023-02-11T07:05:26.584Z,-1.14
2023-02-11T07:07:53.029Z,-1.12
2023-02-11T07:10:19.426Z,-1.12
2023-02-11T07:12:45.850Z,-1.16
2023-02-11T07:15:12.426Z,-1.07
2023-02-11T07:17:38.915Z,-1.07
2023-02-11T07:20:05.690Z,-0.98
2023-02-11T07:22:34.014Z,-0.87
2023-02-11T07:25:00.439Z,-0.89
2023-02-11T07:27:26.904Z,-0.77
2023-02-11T07:29:53.368Z,-0.76
2023-02-11T07:32:19.861Z,-0.79
2023-02-11T07:34:48.060Z,-0.68
2023-02-11T07:37:14.754Z,-0.55
2023-02-11T07:39:41.244Z,-0.55
2023-02-11T07:42:07.720Z,-0.46
2023-02-11T07:44:35.048Z,-0.53
2023-02-11T07:47:01.634Z,-0.59
2023-02-11T07:49:28.675Z,-0.56
2023-02-11T07:51:55.155Z,-0.68
2023-02-11T07:54:21.999Z,-0.71
2023-02-11T07:56:48.414Z,-0.64
2023-02-11T07:59:14.890Z,-0.59
2023-02-11T08:01:42.038Z,-0.46
2023-02-11T08:04:08.458Z,-0.35
2023-02-11T08:06:35.785Z,-0.30
2023-02-11T08:09:07.715Z,-0.22
2023-02-11T08:11:34.632Z,-0.14
2023-02-11T08:14:01.462Z,-0.14
2023-02-11T08:16:32.929Z,-0.17
2023-02-11T08:19:02.310Z,-0.09
2023-02-11T08:21:29.498Z,-0.08
2023-02-11T08:23:56.545Z,-0.03
2023-02-11T08:26:28.281Z,0.12
2023-02-11T08:28:55.902Z,0.18
2023-02-11T08:31:25.436Z,0.15
2023-02-11T08:33:53.256Z,0.21
2023-02-11T08:36:23.113Z,0.46
2023-02-11T08:38:49.750Z,0.68
2023-02-11T08:41:17.288Z,0.59
2023-02-11T08:43:44.906Z,0.59
2023-02-11T08:46:15.180Z,0.73
2023-02-11T08:48:41.879Z,0.81
2023-02-11T08:51:15.967Z,0.96
2023-02-11T08:53:42.507Z,1.06
2023-02-11T08:56:13.313Z,1.16
2023-02-11T08:58:40.747Z,1.19
2023-02-11T09:01:24.847Z,1.38
2023-02-11T09:03:51.867Z,1.49
2023-02-11T09:06:19.237Z,1.57
2023-02-11T09:08:49.370Z,1.45
2023-02-11T09:11:17.492Z,1.46
2023-02-11T09:13:45.161Z,1.53
2023-02-11T09:16:23.797Z,1.55
2023-02-11T09:18:50.348Z,1.55
2023-02-11T09:21:18.069Z,1.52
2023-02-11T09:23:47.308Z,1.58
2023-02-11T09:26:20.686Z,1.56
2023-02-11T09:28:48.376Z,1.59
2023-02-11T09:31:17.485Z,1.66
2023-02-11T09:33:48.997Z,1.77
2023-02-11T09:36:21.538Z,1.90
2023-02-11T09:38:48.682Z,2.04
2023-02-11T09:41:32.991Z,2.25
2023-02-11T09:44:05.111Z,2.50
2023-02-11T09:46:37.836Z,2.67
2023-02-11T09:49:05.381Z,2.80
2023-02-11T09:52:06.330Z,2.94
2023-02-11T09:54:53.715Z,3.05
2023-02-11T09:57:28.521Z,3.22
2023-02-11T09:59:56.903Z,3.29
2023-02-11T10:02:45.343Z,3.40
2023-02-11T10:05:30.836Z,3.59
2023-02-11T10:08:09.915Z,3.76
2023-02-11T10:10:54.059Z,3.86
2023-02-11T10:13:35.812Z,4.01
2023-02-11T10:16:08.418Z,4.14
2023-02-11T10:18:46.370Z,4.34
2023-02-11T10:21:36.530Z,4.35
2023-02-11T10:24:10.157Z,4.35
2023-02-11T10:26:39.491Z,4.31
2023-02-11T10:29:23.050Z,4.42
2023-02-11T10:31:50.693Z,4.49
2023-02-11T10:34:17.252Z,4.53
2023-02-11T10:36:45.167Z,4.54
2023-02-11T10:39:16.663Z,4.58
2023-02-11T10:41:51.179Z,4.61
2023-02-11T10:44:26.772Z,4.69
2023-02-11T10:46:54.845Z,4.62
2023-02-11T10:49:47.930Z,4.72
2023-02-11T10:52:27.435Z,4.82
2023-02-11T10:55:14.463Z,4.84
2023-02-11T10:58:02.978Z,4.94
2023-02-11T11:00:42.357Z,5.01
2023-02-11T11:03:20.891Z,4.98
2023-02-11T11:05:53.456Z,5.10
2023-02-11T11:08:20.156Z,5.08
2023-02-11T11:11:03.792Z,5.23
2023-02-11T11:13:35.852Z,5.23
2023-02-11T11:16:08.240Z,5.24
2023-02-11T11:18:34.762Z,5.23
2023-02-11T11:21:05.773Z,5.21
2023-02-11T11:23:33.950Z,5.15
2023-02-11T11:26:09.540Z,5.21
2023-02-11T11:28:40.968Z,5.27
2023-02-11T11:31:45.865Z,5.39
2023-02-11T11:34:29.695Z,5.52
2023-02-11T11:36:58.070Z,5.59
2023-02-11T11:39:27.644Z,5.64
2023-02-11T11:42:24.557Z,5.66
2023-02-11T11:45:01.482Z,5.69
2023-02-11T11:47:44.784Z,5.57
2023-02-11T11:50:27.358Z,5.57
2023-02-11T11:53:04.413Z,5.60
2023-02-11T11:55:42.321Z,5.70
2023-02-11T11:58:23.053Z,5.85
2023-02-11T12:00:56.699Z,5.79
2023-02-11T12:03:44.018Z,5.77
2023-02-11T12:06:30.741Z,5.92
2023-02-11T12:09:09.428Z,6.08
2023-02-11T12:12:12.025Z,6.20
2023-02-11T12:14:53.879Z,6.41
2023-02-11T12:17:56.802Z,6.45
2023-02-11T12:20:51.509Z,6.58
2023-02-11T12:23:30.334Z,6.53
2023-02-11T12:26:16.982Z,6.58
2023-02-11T12:29:18.662Z,6.75
2023-02-11T12:31:50.911Z,6.75
2023-02-11T12:34:23.320Z,6.53
2023-02-11T12:36:55.992Z,6.49
2023-02-11T12:39:36.327Z,6.59
2023-02-11T12:42:41.739Z,6.60
2023-02-11T12:45:10.907Z,6.74
2023-02-11T12:47:49.366Z,6.87
2023-02-11T12:50:21.703Z,6.95
2023-02-11T12:53:22.910Z,6.95
2023-02-11T12:55:54.895Z,6.68
2023-02-11T12:58:35.634Z,6.76
2023-02-11T13:01:19.252Z,6.83
2023-02-11T13:03:56.886Z,6.60
2023-02-11T13:06:35.927Z,6.61
2023-02-11T13:09:07.129Z,6.58
2023-02-11T13:11:39.747Z,6.58
2023-02-11T13:14:13.941Z,6.58
2023-02-11T13:16:46.131Z,6.46
2023-02-11T13:19:12.661Z,6.36
2023-02-11T13:21:55.987Z,6.39
2023-02-11T13:24:29.185Z,6.32
2023-02-11T13:27:11.767Z,6.36
2023-02-11T13:30:15.768Z,6.44
2023-02-11T13:33:19.634Z,6.18
2023-02-11T13:36:08.521Z,6.32
2023-02-11T13:38:36.075Z,6.37
2023-02-11T13:41:04.455Z,6.40
2023-02-11T13:43:33.672Z,6.41
2023-02-11T13:46:10.554Z,6.29
2023-02-11T13:48:48.098Z,6.35
2023-02-11T13:51:18.276Z,6.33
2023-02-11T13:53:47.114Z,6.45
2023-02-11T13:56:28.073Z,6.60
2023-02-11T13:58:54.723Z,6.69
2023-02-11T14:01:39.035Z,6.69
2023-02-11T14:04:38.255Z,6.67
2023-02-11T14:07:51.120Z,6.76
2023-02-11T14:10:42.204Z,6.72
2023-02-11T14:13:23.440Z,6.87
2023-02-11T14:16:04.270Z,7.17
2023-02-11T14:18:45.700Z,7.60
2023-02-11T14:21:14.243Z,8.30
2023-02-11T14:23:41.436Z,8.80
2023-02-11T14:26:20.178Z,8.28
2023-02-11T14:29:05.435Z,8.41
2023-02-11T14:31:41.200Z,7.55
2023-02-11T14:34:41.784Z,7.59
2023-02-11T14:37:19.574Z,7.61
2023-02-11T14:40:15.807Z,7.78
2023-02-11T14:42:42.475Z,8.06
2023-02-11T14:45:14.350Z,7.63
2023-02-11T14:47:46.443Z,7.27
2023-02-11T14:50:53.746Z,7.42
2023-02-11T14:53:24.000Z,7.39
2023-02-11T14:55:53.249Z,7.27
2023-02-11T14:58:21.061Z,7.33
2023-02-11T15:00:59.456Z,7.00
2023-02-11T15:03:34.861Z,6.68
2023-02-11T15:06:24.034Z,6.85
2023-02-11T15:09:18.478Z,6.93
2023-02-11T15:11:48.684Z,6.80
2023-02-11T15:14:32.041Z,6.86
2023-02-11T15:17:04.476Z,6.92
2023-02-11T15:19:42.046Z,6.73
2023-02-11T15:22:22.153Z,6.75
2023-02-11T15:25:06.886Z,6.76
2023-02-11T15:27:41.517Z,6.54
2023-02-11T15:30:33.813Z,6.55
2023-02-11T15:33:03.267Z,6.39
2023-02-11T15:35:38.475Z,6.44
2023-02-11T15:38:05.650Z,6.06
2023-02-11T15:40:35.622Z,6.08
2023-02-11T15:43:07.625Z,5.85
2023-02-11T15:45:54.102Z,5.65
2023-02-11T15:48:29.169Z,5.82
2023-02-11T15:51:01.434Z,5.69
2023-02-11T15:53:40.602Z,5.81
2023-02-11T15:56:13.415Z,5.71
2023-02-11T15:58:42.370Z,5.68
2023-02-11T16:01:09.978Z,5.64
2023-02-11T16:03:36.745Z,5.53
2023-02-11T16:06:39.078Z,5.53
2023-02-11T16:09:08.295Z,5.54
2023-02-11T16:11:38.359Z,5.52
2023-02-11T16:14:23.279Z,5.40
2023-02-11T16:16:53.025Z,5.51
2023-02-11T16:19:24.157Z,5.32
2023-02-11T16:21:53.369Z,5.47
2023-02-11T16:24:28.018Z,5.43
2023-02-11T16:27:00.346Z,5.22
2023-02-11T16:29:29.194Z,5.20
2023-02-11T16:32:07.968Z,5.43
2023-02-11T16:34:35.104Z,5.49
2023-02-11T16:37:04.408Z,5.37
2023-02-11T16:39:30.967Z,5.34
2023-02-11T16:41:58.298Z,5.32
2023-02-11T16:44:24.936Z,5.17
2023-02-11T16:46:52.572Z,5.12
2023-02-11T16:49:31.456Z,5.11
2023-02-11T16:52:02.460Z,5.08
2023-02-11T16:54:30.106Z,5.15
2023-02-11T16:56:57.200Z,5.05
2023-02-11T16:59:23.601Z,4.93
2023-02-11T17:01:52.822Z,4.91
2023-02-11T17:04:31.379Z,4.79
2023-02-11T17:06:58.687Z,4.75
2023-02-11T17:09:30.366Z,4.69
2023-02-11T17:11:57.604Z,4.69
2023-02-11T17:14:24.243Z,4.68
2023-02-11T17:16:50.785Z,4.66
2023-02-11T17:19:21.787Z,4.62
2023-02-11T17:21:51.746Z,4.67
2023-02-11T17:24:18.880Z,4.46
2023-02-11T17:26:46.119Z,4.50
2023-02-11T17:29:22.069Z,4.55
2023-02-11T17:31:49.167Z,4.42
2023-02-11T17:34:16.838Z,4.28
2023-02-11T17:36:43.723Z,4.31
2023-02-11T17:39:10.305Z,4.47
2023-02-11T17:41:38.797Z,4.47
2023-02-11T17:44:06.480Z,4.52
2023-02-11T17:46:35.100Z,4.17
2023-02-11T17:49:02.440Z,3.86
2023-02-11T17:51:35.101Z,3.65
2023-02-11T17:54:04.446Z,3.46
2023-02-11T17:56:35.075Z,3.41
2023-02-11T17:59:02.833Z,3.44
2023-02-11T18:01:30.660Z,3.42
2023-02-11T18:03:57.223Z,3.46
2023-02-11T18:06:23.983Z,3.38
2023-02-11T18:08:50.429Z,3.44
2023-02-11T18:11:17.560Z,3.40
2023-02-11T18:13:45.306Z,3.35
2023-02-11T18:16:15.541Z,3.27
2023-02-11T18:18:43.217Z,3.21
2023-02-11T18:21:13.993Z,3.12
2023-02-11T18:23:40.541Z,3.02
2023-02-11T18:26:08.676Z,2.96
2023-02-11T18:28:35.318Z,3.03
2023-02-11T18:31:02.470Z,3.04
2023-02-11T18:33:30.453Z,3.06
2023-02-11T18:35:57.505Z,3.10
2023-02-11T18:38:25.042Z,3.08
2023-02-11T18:40:52.366Z,3.01
2023-02-11T18:43:21.793Z,3.02
2023-02-11T18:45:50.646Z,3.06
2023-02-11T18:48:18.612Z,3.07
2023-02-11T18:50:46.289Z,3.09
2023-02-11T18:53:15.525Z,3.01
2023-02-11T18:55:44.161Z,2.99
2023-02-11T18:58:10.988Z,2.98
2023-02-11T19:00:40.975Z,2.98
2023-02-11T19:03:07.434Z,2.91
2023-02-11T19:05:45.403Z,3.08
2023-02-11T19:08:13.070Z,3.31
2023-02-11T19:10:44.570Z,3.39
2023-02-11T19:13:11.630Z,3.35
2023-02-11T19:15:42.754Z,3.09
2023-02-11T19:18:09.866Z,2.96
2023-02-11T19:20:39.469Z,2.95
2023-02-11T19:23:05.997Z,2.95
2023-02-11T19:25:32.750Z,2.97
2023-02-11T19:28:00.230Z,2.81
2023-02-11T19:30:27.408Z,2.77
2023-02-11T19:32:56.948Z,2.82
2023-02-11T19:35:24.138Z,3.02
2023-02-11T19:37:50.643Z,3.11
2023-02-11T19:40:17.556Z,3.12
2023-02-11T19:42:44.003Z,3.10
2023-02-11T19:45:10.483Z,3.11
2023-02-11T19:47:37.039Z,2.97
2023-02-11T19:50:05.104Z,3.01
2023-02-11T19:52:31.792Z,3.06
2023-02-11T19:54:58.255Z,3.58
2023-02-11T19:57:24.822Z,3.80
2023-02-11T19:59:53.179Z,4.05
2023-02-11T20:02:19.733Z,4.12
2023-02-11T20:04:46.335Z,4.11
2023-02-11T20:07:12.864Z,4.00
2023-02-11T20:09:40.917Z,3.75
2023-02-11T20:12:07.444Z,3.74
2023-02-11T20:14:34.006Z,3.70
2023-02-11T20:17:00.441Z,3.52
2023-02-11T20:19:27.933Z,3.53
2023-02-11T20:21:55.541Z,3.51
2023-02-11T20:24:23.634Z,3.48
2023-02-11T20:26:55.074Z,3.46
2023-02-11T20:29:21.772Z,3.27
2023-02-11T20:31:49.807Z,3.12
2023-02-11T20:34:19.455Z,3.16
2023-02-11T20:36:51.630Z,3.24
2023-02-11T20:39:19.172Z,3.28
2023-02-11T20:41:46.073Z,3.19
2023-02-11T20:44:12.940Z,3.08
2023-02-11T20:46:42.774Z,3.03
2023-02-11T20:49:14.353Z,3.06
2023-02-11T20:51:41.491Z,3.02
2023-02-11T20:54:12.759Z,2.99
2023-02-11T20:56:39.518Z,3.01
2023-02-11T20:59:06.735Z,2.98
2023-02-11T21:01:36.164Z,2.97
2023-02-11T21:04:04.307Z,2.99
2023-02-11T21:06:37.353Z,3.05
2023-02-11T21:09:06.766Z,3.07
2023-02-11T21:11:33.603Z,3.17
2023-02-11T21:14:00.080Z,3.03
2023-02-11T21:16:27.144Z,2.92
2023-02-11T21:18:55.362Z,2.96
2023-02-11T21:21:22.459Z,3.11
2023-02-11T21:23:48.908Z,3.28
2023-02-11T21:26:16.920Z,3.25
2023-02-11T21:28:43.922Z,3.24
2023-02-11T21:31:22.550Z,3.11
2023-02-11T21:33:50.340Z,2.92
2023-02-11T21:36:16.962Z,2.87
2023-02-11T21:38:43.581Z,2.79
2023-02-11T21:41:11.317Z,2.90
2023-02-11T21:43:38.203Z,2.88
2023-02-11T21:46:12.656Z,2.86
2023-02-11T21:48:39.148Z,2.88
2023-02-11T21:51:15.037Z,2.91
2023-02-11T21:53:41.493Z,2.94
2023-02-11T21:56:14.004Z,2.95
2023-02-11T21:58:40.600Z,2.99
2023-02-11T22:01:30.881Z,3.07
2023-02-11T22:03:57.773Z,3.27
2023-02-11T22:06:27.142Z,3.34
2023-02-11T22:08:54.474Z,3.35
2023-02-11T22:11:21.030Z,3.05
2023-02-11T22:13:47.830Z,2.94
2023-02-11T22:16:16.361Z,2.96
2023-02-11T22:18:46.233Z,2.95
2023-02-11T22:21:15.621Z,3.02
2023-02-11T22:23:42.705Z,3.05
2023-02-11T22:26:12.911Z,2.95
2023-02-11T22:28:40.791Z,2.78
2023-02-11T22:31:12.245Z,2.62
2023-02-11T22:33:38.889Z,2.69
2023-02-11T22:36:09.024Z,2.80
2023-02-11T22:38:35.714Z,2.81
2023-02-11T22:41:08.010Z,2.68
2023-02-11T22:43:34.526Z,2.46
2023-02-11T22:46:05.812Z,2.46
2023-02-11T22:48:33.394Z,2.35
2023-02-11T22:51:07.936Z,2.36
2023-02-11T22:53:35.108Z,2.32
2023-02-11T22:56:03.872Z,2.50
2023-02-11T22:58:30.861Z,2.62
2023-02-11T23:00:57.512Z,2.57
2023-02-11T23:03:24.077Z,2.59
2023-02-11T23:05:50.557Z,2.70
2023-02-11T23:08:17.323Z,2.80
2023-02-11T23:10:44.007Z,2.73
2023-02-11T23:13:10.710Z,2.63
2023-02-11T23:15:41.858Z,2.55
2023-02-11T23:18:09.399Z,2.64
2023-02-11T23:20:37.365Z,2.58
2023-02-11T23:23:03.954Z,2.54
2023-02-11T23:25:31.312Z,2.51
2023-02-11T23:27:57.877Z,2.54
2023-02-11T23:30:24.454Z,2.56
2023-02-11T23:32:51.741Z,2.55
2023-02-11T23:35:22.957Z,2.51
2023-02-11T23:37:50.936Z,2.58
2023-02-11T23:40:18.305Z,2.47
2023-02-11T23:42:45.676Z,2.44
2023-02-11T23:45:12.211Z,2.47
2023-02-11T23:47:39.652Z,2.52
2023-02-11T23:50:07.567Z,2.45
2023-02-11T23:52:34.244Z,2.44
2023-02-11T23:55:00.700Z,2.49
2023-02-11T23:57:27.175Z,2.45
2023-02-11T23:59:53.663Z,2.40
